Terminal Aerodrome Forecast
Issued by NWS

Home | Current Version | Previous Version | Graphics & Text | Print | Product List | Glossary On
Versions: 1 2 3 4 5 6 7 8 9 10 11 12 13 14 15 16 17 18 19 20 21 22 23 24 25 26 27 28 29 30 31 32 33 34 35 36 37 38 39 40 41 42 43 44 45 46 47 48 49 50
000
FTUS43 KLOT 041743
TAFGYY
TAF
KGYY 041743Z 0418/0518 27009KT P6SM SCT020 BKN100
     FM041900 36010KT P6SM SCT030 BKN150
     FM042100 02011KT P6SM BKN035
     FM050000 07009KT P6SM VCSH BKN040
     FM050530 06008KT 4SM -SHRA VCTS SCT025 BKN050 BKN100CB PROB30
      0506/0511 3SM TSRA OVC010CB
     FM051100 06011KT 3SM -SHRA BR OVC010=

USA.gov is the U.S. government's official web portal to all federal, state and local government web resources and services.